sensor_id;sensor_type;location;lat;lon;timestamp;P1;durP1;ratioP1;P2;durP2;ratioP2
2225;SDS011;1119;48.288;8.726;2023-05-17T00:01:26;2.90;;;2.80;;
2225;SDS011;1119;48.288;8.726;2023-05-17T00:04:14;6.67;;;3.10;;
2225;SDS011;1119;48.288;8.726;2023-05-17T00:07:02;3.50;;;3.03;;
2225;SDS011;1119;48.288;8.726;2023-05-17T00:09:50;2.20;;;2.10;;
2225;SDS011;1119;48.288;8.726;2023-05-17T00:12:39;2.70;;;2.60;;
2225;SDS011;1119;48.288;8.726;2023-05-17T00:15:26;3.53;;;3.33;;
2225;SDS011;1119;48.288;8.726;2023-05-17T00:18:14;4.40;;;3.27;;
2225;SDS011;1119;48.288;8.726;2023-05-17T00:21:02;3.40;;;3.20;;
2225;SDS011;1119;48.288;8.726;2023-05-17T00:23:50;7.07;;;3.23;;
2225;SDS011;1119;48.288;8.726;2023-05-17T00:26:37;2.90;;;2.70;;
2225;SDS011;1119;48.288;8.726;2023-05-17T00:29:27;3.17;;;3.00;;
2225;SDS011;1119;48.288;8.726;2023-05-17T00:32:14;7.63;;;3.70;;
2225;SDS011;1119;48.288;8.726;2023-05-17T00:35:02;11.07;;;3.20;;
2225;SDS011;1119;48.288;8.726;2023-05-17T00:37:51;5.20;;;3.30;;
2225;SDS011;1119;48.288;8.726;2023-05-17T00:40:39;3.03;;;2.83;;
2225;SDS011;1119;48.288;8.726;2023-05-17T00:43:27;2.83;;;2.63;;
2225;SDS011;1119;48.288;8.726;2023-05-17T00:46:16;4.30;;;3.30;;
2225;SDS011;1119;48.288;8.726;2023-05-17T00:49:04;3.87;;;3.77;;
2225;SDS011;1119;48.288;8.726;2023-05-17T00:51:53;3.40;;;3.17;;
2225;SDS011;1119;48.288;8.726;2023-05-17T00:54:42;3.87;;;2.70;;
2225;SDS011;1119;48.288;8.726;2023-05-17T00:57:31;2.80;;;2.70;;
2225;SDS011;1119;48.288;8.726;2023-05-17T01:00:20;3.70;;;3.20;;
2225;SDS011;1119;48.288;8.726;2023-05-17T01:03:10;3.20;;;3.00;;
2225;SDS011;1119;48.288;8.726;2023-05-17T01:05:58;4.07;;;3.20;;
2225;SDS011;1119;48.288;8.726;2023-05-17T01:08:46;3.17;;;3.07;;
2225;SDS011;1119;48.288;8.726;2023-05-17T01:11:38;3.07;;;2.93;;
2225;SDS011;1119;48.288;8.726;2023-05-17T01:14:37;2.60;;;2.50;;
2225;SDS011;1119;48.288;8.726;2023-05-17T01:17:38;2.63;;;2.50;;
2225;SDS011;1119;48.288;8.726;2023-05-17T01:20:35;2.60;;;2.50;;
2225;SDS011;1119;48.288;8.726;2023-05-17T01:23:27;4.70;;;2.67;;
2225;SDS011;1119;48.288;8.726;2023-05-17T01:26:34;3.17;;;3.00;;
2225;SDS011;1119;48.288;8.726;2023-05-17T01:29:25;3.57;;;3.37;;
2225;SDS011;1119;48.288;8.726;2023-05-17T01:32:15;3.00;;;2.80;;
2225;SDS011;1119;48.288;8.726;2023-05-17T01:35:03;3.50;;;3.20;;
2225;SDS011;1119;48.288;8.726;2023-05-17T01:37:54;3.40;;;3.10;;
2225;SDS011;1119;48.288;8.726;2023-05-17T01:40:43;3.20;;;3.10;;
2225;SDS011;1119;48.288;8.726;2023-05-17T01:43:48;3.27;;;3.13;;
2225;SDS011;1119;48.288;8.726;2023-05-17T01:46:41;3.40;;;3.20;;
2225;SDS011;1119;48.288;8.726;2023-05-17T01:49:29;3.30;;;3.10;;
2225;SDS011;1119;48.288;8.726;2023-05-17T01:52:23;2.87;;;2.77;;
2225;SDS011;1119;48.288;8.726;2023-05-17T01:55:28;2.90;;;2.70;;
2225;SDS011;1119;48.288;8.726;2023-05-17T01:58:27;2.70;;;2.60;;
2225;SDS011;1119;48.288;8.726;2023-05-17T02:05:56;3.00;;;2.90;;
2225;SDS011;1119;48.288;8.726;2023-05-17T02:08:46;3.27;;;2.90;;
2225;SDS011;1119;48.288;8.726;2023-05-17T02:12:21;3.23;;;3.03;;
2225;SDS011;1119;48.288;8.726;2023-05-17T02:15:10;5.50;;;3.33;;
2225;SDS011;1119;48.288;8.726;2023-05-17T02:18:00;3.00;;;2.80;;
2225;SDS011;1119;48.288;8.726;2023-05-17T02:20:48;2.53;;;2.43;;
2225;SDS011;1119;48.288;8.726;2023-05-17T02:23:35;4.70;;;2.80;;
2225;SDS011;1119;48.288;8.726;2023-05-17T02:26:23;3.27;;;3.13;;
2225;SDS011;1119;48.288;8.726;2023-05-17T02:29:11;4.33;;;3.93;;
2225;SDS011;1119;48.288;8.726;2023-05-17T02:31:58;3.67;;;3.37;;
2225;SDS011;1119;48.288;8.726;2023-05-17T02:34:47;3.23;;;2.70;;
2225;SDS011;1119;48.288;8.726;2023-05-17T02:37:35;2.97;;;2.87;;
2225;SDS011;1119;48.288;8.726;2023-05-17T02:40:24;3.87;;;3.57;;
2225;SDS011;1119;48.288;8.726;2023-05-17T02:43:11;3.37;;;3.23;;
2225;SDS011;1119;48.288;8.726;2023-05-17T02:45:59;2.97;;;2.83;;
2225;SDS011;1119;48.288;8.726;2023-05-17T02:48:47;3.20;;;2.90;;
2225;SDS011;1119;48.288;8.726;2023-05-17T02:51:46;5.13;;;3.53;;
2225;SDS011;1119;48.288;8.726;2023-05-17T02:54:33;2.57;;;2.47;;
2225;SDS011;1119;48.288;8.726;2023-05-17T02:57:21;3.50;;;3.30;;
2225;SDS011;1119;48.288;8.726;2023-05-17T03:00:09;3.13;;;2.90;;
2225;SDS011;1119;48.288;8.726;2023-05-17T03:02:58;2.80;;;2.60;;
2225;SDS011;1119;48.288;8.726;2023-05-17T03:05:46;3.20;;;3.10;;
2225;SDS011;1119;48.288;8.726;2023-05-17T03:08:35;2.63;;;2.53;;
2225;SDS011;1119;48.288;8.726;2023-05-17T03:11:23;3.80;;;3.20;;
2225;SDS011;1119;48.288;8.726;2023-05-17T03:14:13;3.93;;;2.37;;
2225;SDS011;1119;48.288;8.726;2023-05-17T03:17:01;2.70;;;2.60;;
2225;SDS011;1119;48.288;8.726;2023-05-17T03:19:49;3.70;;;3.40;;
2225;SDS011;1119;48.288;8.726;2023-05-17T03:22:37;4.10;;;2.90;;
2225;SDS011;1119;48.288;8.726;2023-05-17T03:25:26;3.50;;;3.30;;
2225;SDS011;1119;48.288;8.726;2023-05-17T03:28:14;3.77;;;3.40;;
2225;SDS011;1119;48.288;8.726;2023-05-17T03:31:03;6.27;;;3.83;;
2225;SDS011;1119;48.288;8.726;2023-05-17T03:33:52;3.63;;;3.43;;
2225;SDS011;1119;48.288;8.726;2023-05-17T03:36:40;3.20;;;3.10;;
2225;SDS011;1119;48.288;8.726;2023-05-17T03:39:29;3.90;;;3.70;;
2225;SDS011;1119;48.288;8.726;2023-05-17T03:42:18;3.20;;;3.10;;
2225;SDS011;1119;48.288;8.726;2023-05-17T03:45:07;2.90;;;2.80;;
2225;SDS011;1119;48.288;8.726;2023-05-17T03:47:56;2.83;;;2.73;;
2225;SDS011;1119;48.288;8.726;2023-05-17T03:50:45;2.80;;;2.70;;
2225;SDS011;1119;48.288;8.726;2023-05-17T03:53:32;3.20;;;2.80;;
2225;SDS011;1119;48.288;8.726;2023-05-17T03:56:26;3.50;;;3.30;;
2225;SDS011;1119;48.288;8.726;2023-05-17T03:59:15;3.50;;;3.13;;
2225;SDS011;1119;48.288;8.726;2023-05-17T04:02:02;4.10;;;3.10;;
2225;SDS011;1119;48.288;8.726;2023-05-17T04:04:51;2.93;;;2.83;;
2225;SDS011;1119;48.288;8.726;2023-05-17T04:07:40;2.97;;;2.87;;
2225;SDS011;1119;48.288;8.726;2023-05-17T04:10:27;2.90;;;2.80;;
2225;SDS011;1119;48.288;8.726;2023-05-17T04:13:15;3.20;;;3.00;;
2225;SDS011;1119;48.288;8.726;2023-05-17T04:16:06;5.00;;;3.67;;
2225;SDS011;1119;48.288;8.726;2023-05-17T04:18:58;3.70;;;3.50;;
2225;SDS011;1119;48.288;8.726;2023-05-17T04:21:47;3.53;;;3.20;;
2225;SDS011;1119;48.288;8.726;2023-05-17T04:24:38;3.30;;;2.73;;
2225;SDS011;1119;48.288;8.726;2023-05-17T04:27:26;3.27;;;3.07;;
2225;SDS011;1119;48.288;8.726;2023-05-17T04:30:13;3.30;;;3.10;;
2225;SDS011;1119;48.288;8.726;2023-05-17T04:33:03;5.27;;;2.97;;
2225;SDS011;1119;48.288;8.726;2023-05-17T04:35:53;3.07;;;2.90;;
2225;SDS011;1119;48.288;8.726;2023-05-17T04:38:42;2.80;;;2.60;;
2225;SDS011;1119;48.288;8.726;2023-05-17T04:41:33;2.90;;;2.70;;
2225;SDS011;1119;48.288;8.726;2023-05-17T04:44:24;3.00;;;2.80;;
2225;SDS011;1119;48.288;8.726;2023-05-17T04:47:13;2.67;;;2.50;;
2225;SDS011;1119;48.288;8.726;2023-05-17T04:50:02;4.53;;;3.00;;
2225;SDS011;1119;48.288;8.726;2023-05-17T04:52:51;3.50;;;3.30;;
2225;SDS011;1119;48.288;8.726;2023-05-17T04:55:38;4.23;;;3.87;;
2225;SDS011;1119;48.288;8.726;2023-05-17T04:58:27;3.77;;;3.50;;
2225;SDS011;1119;48.288;8.726;2023-05-17T05:01:18;4.30;;;4.00;;
2225;SDS011;1119;48.288;8.726;2023-05-17T05:04:07;4.13;;;3.53;;
2225;SDS011;1119;48.288;8.726;2023-05-17T05:07:00;4.07;;;3.80;;
2225;SDS011;1119;48.288;8.726;2023-05-17T05:09:48;7.20;;;3.10;;
2225;SDS011;1119;48.288;8.726;2023-05-17T05:12:37;8.77;;;3.83;;
2225;SDS011;1119;48.288;8.726;2023-05-17T05:15:24;3.10;;;2.90;;
2225;SDS011;1119;48.288;8.726;2023-05-17T05:18:16;4.00;;;3.37;;
2225;SDS011;1119;48.288;8.726;2023-05-17T05:21:05;5.63;;;3.10;;
2225;SDS011;1119;48.288;8.726;2023-05-17T05:23:54;11.93;;;4.13;;
2225;SDS011;1119;48.288;8.726;2023-05-17T05:26:42;8.70;;;4.00;;
2225;SDS011;1119;48.288;8.726;2023-05-17T05:29:32;3.80;;;3.60;;
2225;SDS011;1119;48.288;8.726;2023-05-17T05:32:19;4.63;;;4.00;;
2225;SDS011;1119;48.288;8.726;2023-05-17T05:35:08;3.37;;;3.07;;
2225;SDS011;1119;48.288;8.726;2023-05-17T05:37:55;5.23;;;3.00;;
2225;SDS011;1119;48.288;8.726;2023-05-17T05:40:46;2.60;;;2.40;;
2225;SDS011;1119;48.288;8.726;2023-05-17T05:43:33;2.63;;;2.53;;
2225;SDS011;1119;48.288;8.726;2023-05-17T05:46:22;3.40;;;3.10;;
2225;SDS011;1119;48.288;8.726;2023-05-17T05:49:10;4.70;;;3.03;;
2225;SDS011;1119;48.288;8.726;2023-05-17T05:51:58;3.47;;;3.27;;
2225;SDS011;1119;48.288;8.726;2023-05-17T05:54:48;3.20;;;3.10;;
2225;SDS011;1119;48.288;8.726;2023-05-17T05:57:38;4.43;;;4.00;;
2225;SDS011;1119;48.288;8.726;2023-05-17T06:00:26;3.53;;;3.23;;
2225;SDS011;1119;48.288;8.726;2023-05-17T06:03:14;4.00;;;3.37;;
2225;SDS011;1119;48.288;8.726;2023-05-17T06:06:02;3.20;;;3.00;;
2225;SDS011;1119;48.288;8.726;2023-05-17T06:08:50;3.43;;;3.27;;
2225;SDS011;1119;48.288;8.726;2023-05-17T06:11:38;3.20;;;2.87;;
2225;SDS011;1119;48.288;8.726;2023-05-17T06:14:26;3.27;;;3.07;;
2225;SDS011;1119;48.288;8.726;2023-05-17T06:17:14;3.03;;;2.77;;
2225;SDS011;1119;48.288;8.726;2023-05-17T06:20:02;3.70;;;3.50;;
2225;SDS011;1119;48.288;8.726;2023-05-17T06:22:50;3.90;;;3.60;;
2225;SDS011;1119;48.288;8.726;2023-05-17T06:25:38;4.03;;;3.37;;
2225;SDS011;1119;48.288;8.726;2023-05-17T06:28:27;3.80;;;3.50;;
2225;SDS011;1119;48.288;8.726;2023-05-17T06:31:16;3.00;;;2.83;;
2225;SDS011;1119;48.288;8.726;2023-05-17T06:34:03;2.67;;;2.57;;
2225;SDS011;1119;48.288;8.726;2023-05-17T06:36:51;3.83;;;3.47;;
2225;SDS011;1119;48.288;8.726;2023-05-17T06:39:39;6.53;;;3.40;;
2225;SDS011;1119;48.288;8.726;2023-05-17T06:42:26;6.03;;;3.93;;
2225;SDS011;1119;48.288;8.726;2023-05-17T06:45:14;5.57;;;3.07;;
2225;SDS011;1119;48.288;8.726;2023-05-17T06:48:04;4.53;;;3.43;;
2225;SDS011;1119;48.288;8.726;2023-05-17T06:50:52;3.90;;;3.60;;
2225;SDS011;1119;48.288;8.726;2023-05-17T06:53:39;3.87;;;3.57;;
2225;SDS011;1119;48.288;8.726;2023-05-17T06:56:27;3.90;;;3.60;;
2225;SDS011;1119;48.288;8.726;2023-05-17T06:59:14;4.67;;;4.20;;
2225;SDS011;1119;48.288;8.726;2023-05-17T07:02:02;3.23;;;3.13;;
2225;SDS011;1119;48.288;8.726;2023-05-17T07:04:51;3.47;;;3.27;;
2225;SDS011;1119;48.288;8.726;2023-05-17T07:07:39;3.30;;;3.13;;
2225;SDS011;1119;48.288;8.726;2023-05-17T07:10:27;4.33;;;4.03;;
2225;SDS011;1119;48.288;8.726;2023-05-17T07:13:14;3.73;;;3.30;;
2225;SDS011;1119;48.288;8.726;2023-05-17T07:16:02;4.57;;;4.20;;
2225;SDS011;1119;48.288;8.726;2023-05-17T07:18:50;3.77;;;3.57;;
2225;SDS011;1119;48.288;8.726;2023-05-17T07:21:39;6.63;;;3.87;;
2225;SDS011;1119;48.288;8.726;2023-05-17T07:24:27;4.30;;;3.77;;
2225;SDS011;1119;48.288;8.726;2023-05-17T07:27:14;4.80;;;3.53;;
2225;SDS011;1119;48.288;8.726;2023-05-17T07:30:02;5.03;;;4.37;;
2225;SDS011;1119;48.288;8.726;2023-05-17T07:32:51;3.40;;;3.20;;
2225;SDS011;1119;48.288;8.726;2023-05-17T07:35:39;5.93;;;3.97;;
2225;SDS011;1119;48.288;8.726;2023-05-17T07:38:28;3.77;;;3.43;;
2225;SDS011;1119;48.288;8.726;2023-05-17T07:41:16;7.80;;;4.10;;
2225;SDS011;1119;48.288;8.726;2023-05-17T07:44:07;3.73;;;3.53;;
2225;SDS011;1119;48.288;8.726;2023-05-17T07:46:54;3.37;;;3.17;;
2225;SDS011;1119;48.288;8.726;2023-05-17T07:49:42;3.10;;;3.00;;
2225;SDS011;1119;48.288;8.726;2023-05-17T07:52:29;6.53;;;4.40;;
2225;SDS011;1119;48.288;8.726;2023-05-17T07:55:18;12.13;;;3.97;;
2225;SDS011;1119;48.288;8.726;2023-05-17T07:58:06;4.20;;;3.90;;
2225;SDS011;1119;48.288;8.726;2023-05-17T08:00:56;3.13;;;2.93;;
2225;SDS011;1119;48.288;8.726;2023-05-17T08:03:45;3.53;;;3.33;;
2225;SDS011;1119;48.288;8.726;2023-05-17T08:06:33;3.03;;;2.93;;
2225;SDS011;1119;48.288;8.726;2023-05-17T08:09:21;10.27;;;3.70;;
2225;SDS011;1119;48.288;8.726;2023-05-17T08:12:09;3.20;;;3.10;;
2225;SDS011;1119;48.288;8.726;2023-05-17T08:14:57;3.57;;;3.37;;
2225;SDS011;1119;48.288;8.726;2023-05-17T08:17:45;3.80;;;3.50;;
2225;SDS011;1119;48.288;8.726;2023-05-17T08:20:33;4.17;;;3.23;;
2225;SDS011;1119;48.288;8.726;2023-05-17T08:23:20;4.50;;;3.50;;
2225;SDS011;1119;48.288;8.726;2023-05-17T08:26:08;4.40;;;4.00;;
2225;SDS011;1119;48.288;8.726;2023-05-17T08:28:59;3.70;;;3.43;;
2225;SDS011;1119;48.288;8.726;2023-05-17T08:31:48;6.50;;;3.90;;
2225;SDS011;1119;48.288;8.726;2023-05-17T08:34:36;3.77;;;3.50;;
2225;SDS011;1119;48.288;8.726;2023-05-17T08:37:23;3.67;;;3.47;;
2225;SDS011;1119;48.288;8.726;2023-05-17T08:40:11;3.10;;;3.00;;
2225;SDS011;1119;48.288;8.726;2023-05-17T08:43:04;7.20;;;3.83;;
2225;SDS011;1119;48.288;8.726;2023-05-17T08:45:55;3.63;;;3.40;;
2225;SDS011;1119;48.288;8.726;2023-05-17T08:48:43;5.00;;;3.97;;
2225;SDS011;1119;48.288;8.726;2023-05-17T08:51:32;4.07;;;3.70;;
2225;SDS011;1119;48.288;8.726;2023-05-17T08:54:22;4.80;;;3.03;;
2225;SDS011;1119;48.288;8.726;2023-05-17T08:57:09;4.37;;;4.10;;
2225;SDS011;1119;48.288;8.726;2023-05-17T08:59:58;4.43;;;3.97;;
2225;SDS011;1119;48.288;8.726;2023-05-17T09:02:48;5.00;;;4.10;;
2225;SDS011;1119;48.288;8.726;2023-05-17T09:05:36;3.70;;;3.50;;
2225;SDS011;1119;48.288;8.726;2023-05-17T09:08:23;3.13;;;2.93;;
2225;SDS011;1119;48.288;8.726;2023-05-17T09:11:12;2.77;;;2.67;;
2225;SDS011;1119;48.288;8.726;2023-05-17T09:14:13;3.83;;;3.53;;
2225;SDS011;1119;48.288;8.726;2023-05-17T09:17:02;5.67;;;4.07;;
2225;SDS011;1119;48.288;8.726;2023-05-17T09:19:52;3.23;;;3.00;;
2225;SDS011;1119;48.288;8.726;2023-05-17T09:22:40;4.47;;;3.87;;
2225;SDS011;1119;48.288;8.726;2023-05-17T09:25:29;4.50;;;3.80;;
2225;SDS011;1119;48.288;8.726;2023-05-17T09:28:17;4.43;;;4.07;;
2225;SDS011;1119;48.288;8.726;2023-05-17T09:31:06;3.60;;;3.40;;
2225;SDS011;1119;48.288;8.726;2023-05-17T09:33:54;3.37;;;3.17;;
2225;SDS011;1119;48.288;8.726;2023-05-17T09:36:46;3.80;;;3.50;;
2225;SDS011;1119;48.288;8.726;2023-05-17T09:39:34;3.77;;;3.40;;
2225;SDS011;1119;48.288;8.726;2023-05-17T09:42:24;3.63;;;3.40;;
2225;SDS011;1119;48.288;8.726;2023-05-17T09:45:12;6.83;;;4.07;;
2225;SDS011;1119;48.288;8.726;2023-05-17T09:48:11;6.23;;;4.30;;
2225;SDS011;1119;48.288;8.726;2023-05-17T09:51:00;6.17;;;5.57;;
2225;SDS011;1119;48.288;8.726;2023-05-17T09:53:49;3.83;;;3.40;;
2225;SDS011;1119;48.288;8.726;2023-05-17T09:56:40;4.33;;;4.03;;
2225;SDS011;1119;48.288;8.726;2023-05-17T09:59:28;4.20;;;3.90;;
2225;SDS011;1119;48.288;8.726;2023-05-17T10:02:18;4.63;;;4.30;;
2225;SDS011;1119;48.288;8.726;2023-05-17T10:05:09;4.33;;;4.03;;
2225;SDS011;1119;48.288;8.726;2023-05-17T10:07:59;3.60;;;3.40;;
2225;SDS011;1119;48.288;8.726;2023-05-17T10:10:48;3.77;;;3.57;;
2225;SDS011;1119;48.288;8.726;2023-05-17T10:13:43;4.10;;;3.73;;
2225;SDS011;1119;48.288;8.726;2023-05-17T10:16:34;4.60;;;4.23;;
2225;SDS011;1119;48.288;8.726;2023-05-17T10:19:24;5.77;;;4.30;;
2225;SDS011;1119;48.288;8.726;2023-05-17T10:25:16;4.43;;;4.07;;
2225;SDS011;1119;48.288;8.726;2023-05-17T10:28:06;5.60;;;3.90;;
2225;SDS011;1119;48.288;8.726;2023-05-17T10:30:54;7.33;;;3.77;;
2225;SDS011;1119;48.288;8.726;2023-05-17T10:33:43;7.53;;;4.30;;
2225;SDS011;1119;48.288;8.726;2023-05-17T10:36:33;9.87;;;4.30;;
2225;SDS011;1119;48.288;8.726;2023-05-17T10:39:20;3.63;;;3.47;;
2225;SDS011;1119;48.288;8.726;2023-05-17T10:42:09;4.33;;;4.03;;
2225;SDS011;1119;48.288;8.726;2023-05-17T10:45:00;3.70;;;3.50;;
2225;SDS011;1119;48.288;8.726;2023-05-17T10:47:50;4.43;;;4.13;;
2225;SDS011;1119;48.288;8.726;2023-05-17T10:50:38;4.37;;;4.17;;
2225;SDS011;1119;48.288;8.726;2023-05-17T10:53:26;4.63;;;3.93;;
2225;SDS011;1119;48.288;8.726;2023-05-17T10:56:14;5.50;;;5.10;;
2225;SDS011;1119;48.288;8.726;2023-05-17T10:59:18;4.63;;;4.23;;
2225;SDS011;1119;48.288;8.726;2023-05-17T11:02:09;4.33;;;3.87;;
2225;SDS011;1119;48.288;8.726;2023-05-17T11:04:57;4.03;;;3.83;;
2225;SDS011;1119;48.288;8.726;2023-05-17T11:07:46;4.83;;;4.43;;
2225;SDS011;1119;48.288;8.726;2023-05-17T11:10:34;5.90;;;4.43;;
2225;SDS011;1119;48.288;8.726;2023-05-17T11:13:24;4.30;;;3.87;;
2225;SDS011;1119;48.288;8.726;2023-05-17T11:16:13;3.37;;;3.17;;
2225;SDS011;1119;48.288;8.726;2023-05-17T11:19:06;4.20;;;3.77;;
2225;SDS011;1119;48.288;8.726;2023-05-17T11:21:56;3.93;;;3.50;;
2225;SDS011;1119;48.288;8.726;2023-05-17T11:24:45;5.70;;;5.10;;
2225;SDS011;1119;48.288;8.726;2023-05-17T11:27:38;4.70;;;4.30;;
2225;SDS011;1119;48.288;8.726;2023-05-17T11:30:30;3.73;;;3.43;;
2225;SDS011;1119;48.288;8.726;2023-05-17T11:33:18;6.77;;;4.47;;
2225;SDS011;1119;48.288;8.726;2023-05-17T11:36:24;5.00;;;4.60;;
2225;SDS011;1119;48.288;8.726;2023-05-17T11:39:13;4.97;;;4.43;;
2225;SDS011;1119;48.288;8.726;2023-05-17T11:42:03;8.00;;;4.43;;
2225;SDS011;1119;48.288;8.726;2023-05-17T11:44:52;6.37;;;4.70;;
2225;SDS011;1119;48.288;8.726;2023-05-17T11:47:46;4.30;;;4.10;;
2225;SDS011;1119;48.288;8.726;2023-05-17T11:50:35;4.60;;;4.30;;
2225;SDS011;1119;48.288;8.726;2023-05-17T11:53:24;3.67;;;3.47;;
2225;SDS011;1119;48.288;8.726;2023-05-17T11:56:13;4.63;;;4.23;;
2225;SDS011;1119;48.288;8.726;2023-05-17T11:59:01;7.30;;;4.40;;
2225;SDS011;1119;48.288;8.726;2023-05-17T12:01:50;5.50;;;5.10;;
2225;SDS011;1119;48.288;8.726;2023-05-17T12:04:38;4.60;;;4.20;;
2225;SDS011;1119;48.288;8.726;2023-05-17T12:07:26;5.03;;;4.17;;
2225;SDS011;1119;48.288;8.726;2023-05-17T12:10:15;5.33;;;5.03;;
2225;SDS011;1119;48.288;8.726;2023-05-17T12:13:03;3.50;;;3.23;;
2225;SDS011;1119;48.288;8.726;2023-05-17T12:16:00;4.83;;;4.50;;
2225;SDS011;1119;48.288;8.726;2023-05-17T12:18:50;4.20;;;3.80;;
2225;SDS011;1119;48.288;8.726;2023-05-17T12:21:38;5.47;;;5.07;;
2225;SDS011;1119;48.288;8.726;2023-05-17T12:24:26;4.80;;;4.30;;
2225;SDS011;1119;48.288;8.726;2023-05-17T12:27:25;4.23;;;3.93;;
2225;SDS011;1119;48.288;8.726;2023-05-17T12:30:13;5.10;;;4.60;;
2225;SDS011;1119;48.288;8.726;2023-05-17T12:33:01;4.50;;;4.20;;
2225;SDS011;1119;48.288;8.726;2023-05-17T12:35:50;7.07;;;4.43;;
2225;SDS011;1119;48.288;8.726;2023-05-17T12:38:39;4.13;;;3.83;;
2225;SDS011;1119;48.288;8.726;2023-05-17T12:41:28;5.73;;;5.33;;
2225;SDS011;1119;48.288;8.726;2023-05-17T12:44:17;5.87;;;5.00;;
2225;SDS011;1119;48.288;8.726;2023-05-17T12:47:06;4.90;;;4.40;;
2225;SDS011;1119;48.288;8.726;2023-05-17T12:49:56;10.83;;;4.60;;
2225;SDS011;1119;48.288;8.726;2023-05-17T12:52:47;4.80;;;4.40;;
2225;SDS011;1119;48.288;8.726;2023-05-17T12:55:35;7.60;;;5.40;;
2225;SDS011;1119;48.288;8.726;2023-05-17T12:58:24;5.23;;;4.83;;
2225;SDS011;1119;48.288;8.726;2023-05-17T13:01:13;10.43;;;4.53;;
2225;SDS011;1119;48.288;8.726;2023-05-17T13:04:00;4.83;;;4.53;;
2225;SDS011;1119;48.288;8.726;2023-05-17T13:06:49;5.77;;;5.27;;
2225;SDS011;1119;48.288;8.726;2023-05-17T13:09:44;4.47;;;4.10;;
2225;SDS011;1119;48.288;8.726;2023-05-17T13:12:33;3.17;;;2.93;;
2225;SDS011;1119;48.288;8.726;2023-05-17T13:15:27;4.77;;;4.43;;
2225;SDS011;1119;48.288;8.726;2023-05-17T13:18:16;5.30;;;4.93;;
2225;SDS011;1119;48.288;8.726;2023-05-17T13:21:05;5.07;;;4.67;;
2225;SDS011;1119;48.288;8.726;2023-05-17T13:24:04;6.03;;;5.43;;
2225;SDS011;1119;48.288;8.726;2023-05-17T13:27:27;12.30;;;5.90;;
2225;SDS011;1119;48.288;8.726;2023-05-17T13:30:15;7.63;;;5.50;;
2225;SDS011;1119;48.288;8.726;2023-05-17T13:33:03;7.57;;;4.90;;
2225;SDS011;1119;48.288;8.726;2023-05-17T13:35:52;5.73;;;5.30;;
2225;SDS011;1119;48.288;8.726;2023-05-17T13:38:40;5.13;;;4.70;;
2225;SDS011;1119;48.288;8.726;2023-05-17T13:41:28;4.33;;;4.13;;
2225;SDS011;1119;48.288;8.726;2023-05-17T13:44:15;4.40;;;4.00;;
2225;SDS011;1119;48.288;8.726;2023-05-17T13:47:03;5.00;;;4.53;;
2225;SDS011;1119;48.288;8.726;2023-05-17T13:49:51;5.17;;;4.77;;
2225;SDS011;1119;48.288;8.726;2023-05-17T13:52:41;5.70;;;4.83;;
2225;SDS011;1119;48.288;8.726;2023-05-17T13:55:29;5.43;;;4.90;;
2225;SDS011;1119;48.288;8.726;2023-05-17T13:58:17;5.23;;;4.57;;
2225;SDS011;1119;48.288;8.726;2023-05-17T14:01:05;5.80;;;4.93;;
2225;SDS011;1119;48.288;8.726;2023-05-17T14:03:52;5.27;;;4.97;;
2225;SDS011;1119;48.288;8.726;2023-05-17T14:06:42;4.63;;;4.10;;
2225;SDS011;1119;48.288;8.726;2023-05-17T14:09:31;6.80;;;4.77;;
2225;SDS011;1119;48.288;8.726;2023-05-17T14:12:21;5.60;;;5.10;;
2225;SDS011;1119;48.288;8.726;2023-05-17T14:15:09;5.50;;;5.00;;
2225;SDS011;1119;48.288;8.726;2023-05-17T14:17:58;8.07;;;5.60;;
2225;SDS011;1119;48.288;8.726;2023-05-17T14:20:45;4.87;;;4.47;;
2225;SDS011;1119;48.288;8.726;2023-05-17T14:23:33;5.73;;;5.23;;
2225;SDS011;1119;48.288;8.726;2023-05-17T14:26:22;5.80;;;4.83;;
2225;SDS011;1119;48.288;8.726;2023-05-17T14:29:10;5.23;;;4.93;;
2225;SDS011;1119;48.288;8.726;2023-05-17T14:31:58;6.87;;;4.87;;
2225;SDS011;1119;48.288;8.726;2023-05-17T14:34:46;5.33;;;4.93;;
2225;SDS011;1119;48.288;8.726;2023-05-17T14:37:34;5.47;;;4.63;;
2225;SDS011;1119;48.288;8.726;2023-05-17T14:40:22;4.97;;;4.57;;
2225;SDS011;1119;48.288;8.726;2023-05-17T14:43:11;6.10;;;4.90;;
2225;SDS011;1119;48.288;8.726;2023-05-17T14:45:59;6.30;;;5.70;;
2225;SDS011;1119;48.288;8.726;2023-05-17T14:48:46;4.83;;;4.50;;
2225;SDS011;1119;48.288;8.726;2023-05-17T14:51:32;5.07;;;4.60;;
2225;SDS011;1119;48.288;8.726;2023-05-17T14:54:20;7.07;;;6.37;;
2225;SDS011;1119;48.288;8.726;2023-05-17T14:57:10;5.23;;;4.83;;
2225;SDS011;1119;48.288;8.726;2023-05-17T14:59:59;6.20;;;4.20;;
2225;SDS011;1119;48.288;8.726;2023-05-17T15:02:48;5.00;;;4.60;;
2225;SDS011;1119;48.288;8.726;2023-05-17T15:05:36;6.33;;;5.73;;
2225;SDS011;1119;48.288;8.726;2023-05-17T15:08:25;8.57;;;5.43;;
2225;SDS011;1119;48.288;8.726;2023-05-17T15:11:13;5.83;;;5.33;;
2225;SDS011;1119;48.288;8.726;2023-05-17T15:14:00;5.90;;;5.50;;
2225;SDS011;1119;48.288;8.726;2023-05-17T15:16:50;4.23;;;3.90;;
2225;SDS011;1119;48.288;8.726;2023-05-17T15:19:38;5.97;;;4.20;;
2225;SDS011;1119;48.288;8.726;2023-05-17T15:22:26;5.57;;;5.17;;
2225;SDS011;1119;48.288;8.726;2023-05-17T15:25:14;4.13;;;3.93;;
2225;SDS011;1119;48.288;8.726;2023-05-17T15:28:02;4.20;;;3.90;;
2225;SDS011;1119;48.288;8.726;2023-05-17T15:30:57;5.10;;;4.70;;
2225;SDS011;1119;48.288;8.726;2023-05-17T15:33:48;4.93;;;4.40;;
2225;SDS011;1119;48.288;8.726;2023-05-17T15:36:39;5.57;;;5.07;;
2225;SDS011;1119;48.288;8.726;2023-05-17T15:39:27;6.63;;;5.60;;
2225;SDS011;1119;48.288;8.726;2023-05-17T15:42:14;4.80;;;4.30;;
2225;SDS011;1119;48.288;8.726;2023-05-17T15:45:02;7.20;;;5.30;;
2225;SDS011;1119;48.288;8.726;2023-05-17T15:47:51;5.90;;;5.50;;
2225;SDS011;1119;48.288;8.726;2023-05-17T15:50:42;4.93;;;4.63;;
2225;SDS011;1119;48.288;8.726;2023-05-17T15:53:29;6.00;;;5.60;;
2225;SDS011;1119;48.288;8.726;2023-05-17T15:56:18;4.60;;;4.20;;
2225;SDS011;1119;48.288;8.726;2023-05-17T15:59:10;5.30;;;4.90;;
2225;SDS011;1119;48.288;8.726;2023-05-17T16:02:00;4.80;;;4.43;;
2225;SDS011;1119;48.288;8.726;2023-05-17T16:04:48;3.70;;;3.43;;
2225;SDS011;1119;48.288;8.726;2023-05-17T16:07:37;4.10;;;3.80;;
2225;SDS011;1119;48.288;8.726;2023-05-17T16:10:25;4.80;;;4.30;;
2225;SDS011;1119;48.288;8.726;2023-05-17T16:13:13;4.50;;;4.23;;
2225;SDS011;1119;48.288;8.726;2023-05-17T16:16:01;3.47;;;3.17;;
2225;SDS011;1119;48.288;8.726;2023-05-17T16:18:48;5.03;;;4.60;;
2225;SDS011;1119;48.288;8.726;2023-05-17T16:21:37;3.23;;;3.03;;
2225;SDS011;1119;48.288;8.726;2023-05-17T16:24:26;3.83;;;3.53;;
2225;SDS011;1119;48.288;8.726;2023-05-17T16:27:13;9.87;;;4.50;;
2225;SDS011;1119;48.288;8.726;2023-05-17T16:30:01;4.47;;;3.60;;
2225;SDS011;1119;48.288;8.726;2023-05-17T16:32:49;8.80;;;5.70;;
2225;SDS011;1119;48.288;8.726;2023-05-17T16:35:37;4.70;;;4.30;;
2225;SDS011;1119;48.288;8.726;2023-05-17T16:38:24;4.87;;;4.23;;
2225;SDS011;1119;48.288;8.726;2023-05-17T16:41:13;4.80;;;4.50;;
2225;SDS011;1119;48.288;8.726;2023-05-17T16:44:01;4.30;;;3.93;;
2225;SDS011;1119;48.288;8.726;2023-05-17T16:46:49;6.23;;;4.77;;
2225;SDS011;1119;48.288;8.726;2023-05-17T16:49:38;5.30;;;4.90;;
2225;SDS011;1119;48.288;8.726;2023-05-17T16:52:26;6.20;;;5.70;;
2225;SDS011;1119;48.288;8.726;2023-05-17T16:55:15;5.53;;;4.50;;
2225;SDS011;1119;48.288;8.726;2023-05-17T16:58:04;4.70;;;4.30;;
2225;SDS011;1119;48.288;8.726;2023-05-17T17:00:52;4.47;;;4.17;;
2225;SDS011;1119;48.288;8.726;2023-05-17T17:03:39;5.53;;;4.37;;
2225;SDS011;1119;48.288;8.726;2023-05-17T17:06:27;4.70;;;4.40;;
2225;SDS011;1119;48.288;8.726;2023-05-17T17:09:15;8.90;;;6.20;;
2225;SDS011;1119;48.288;8.726;2023-05-17T17:12:03;6.20;;;4.70;;
2225;SDS011;1119;48.288;8.726;2023-05-17T17:14:53;4.57;;;4.03;;
2225;SDS011;1119;48.288;8.726;2023-05-17T17:17:41;7.77;;;4.50;;
2225;SDS011;1119;48.288;8.726;2023-05-17T17:20:30;5.10;;;4.57;;
2225;SDS011;1119;48.288;8.726;2023-05-17T17:23:17;4.57;;;4.27;;
2225;SDS011;1119;48.288;8.726;2023-05-17T17:26:05;3.83;;;3.53;;
2225;SDS011;1119;48.288;8.726;2023-05-17T17:28:55;5.23;;;4.80;;
2225;SDS011;1119;48.288;8.726;2023-05-17T17:31:45;4.40;;;4.00;;
2225;SDS011;1119;48.288;8.726;2023-05-17T17:34:37;5.57;;;5.07;;
2225;SDS011;1119;48.288;8.726;2023-05-17T17:37:25;4.13;;;3.83;;
2225;SDS011;1119;48.288;8.726;2023-05-17T17:40:15;7.10;;;5.90;;